Priozersk, Russia
Current Conditions -  °F | °C
As of 4:20 PM on Saturday 20 Dec 2014 (Local Time) from EFLP Reporting Station
Clear Clear  
Wind Chill: 25°   Ceiling: Unl
Heat Index: 32°   Visibility: 6mi
Dew Point: 28°   Wind: 8mph
Humidity: 87%   Direction: 220°SW
Pressure: 29"   Gusts: NA
Location:  61.04°N, 30.14°E
Report Text: EFLP 201320Z AUTO 22007KT 190V260 CAVOK M00/M02 Q0982
Loading
Personal Weather Stations






























Interactive Weather Map New forecast layout! Learn more

10-Day Weather Forecast

Advertisements
Track Severe Weather on mobile